createdAt,value
2023-02-02T00:01:37.580Z,2.50
2023-02-02T00:06:41.265Z,2.33
2023-02-02T00:11:48.624Z,2.40
2023-02-02T00:16:54.270Z,2.63
2023-02-02T00:21:58.721Z,2.63
2023-02-02T00:27:04.079Z,2.78
2023-02-02T00:32:08.063Z,2.72
2023-02-02T00:37:11.742Z,3.08
2023-02-02T00:42:16.841Z,2.70
2023-02-02T00:47:20.611Z,2.67
2023-02-02T00:52:25.251Z,2.67
2023-02-02T00:57:30.334Z,2.58
2023-02-02T01:02:34.426Z,2.90
2023-02-02T01:07:38.127Z,2.88
2023-02-02T01:12:43.559Z,3.08
2023-02-02T01:17:47.638Z,3.00
2023-02-02T01:22:51.815Z,2.80
2023-02-02T01:27:56.797Z,2.90
2023-02-02T01:33:00.572Z,2.78
2023-02-02T01:38:04.280Z,2.70
2023-02-02T01:43:25.107Z,3.08
2023-02-02T01:48:34.378Z,2.83
2023-02-02T01:53:38.373Z,2.85
2023-02-02T01:58:44.956Z,2.72
2023-02-02T02:03:48.758Z,2.58
2023-02-02T02:08:58.168Z,2.58
2023-02-02T02:14:26.978Z,3.03
2023-02-02T02:20:54.191Z,2.47
2023-02-02T02:26:35.143Z,2.50
2023-02-02T02:32:08.193Z,2.80
2023-02-02T02:37:20.494Z,2.80
2023-02-02T02:42:28.582Z,2.65
2023-02-02T02:47:34.818Z,2.80
2023-02-02T02:52:40.385Z,2.63
2023-02-02T02:58:09.686Z,2.42
2023-02-02T03:03:28.350Z,2.65
2023-02-02T03:08:40.009Z,2.40
2023-02-02T03:13:44.996Z,2.47
2023-02-02T03:18:50.069Z,2.67
2023-02-02T03:23:53.863Z,2.47
2023-02-02T03:28:58.631Z,2.55
2023-02-02T03:34:03.748Z,2.70
2023-02-02T03:39:07.461Z,2.60
2023-02-02T03:44:11.247Z,2.47
2023-02-02T03:49:16.537Z,2.40
2023-02-02T03:54:20.167Z,2.30
2023-02-02T03:59:24.101Z,2.42
2023-02-02T04:04:29.307Z,2.30
2023-02-02T04:09:32.990Z,2.38
2023-02-02T04:14:36.674Z,2.20
2023-02-02T04:19:41.825Z,2.30
2023-02-02T04:24:45.563Z,2.17
2023-02-02T04:29:49.417Z,2.30
2023-02-02T04:34:54.575Z,2.20
2023-02-02T04:39:58.348Z,1.95
2023-02-02T04:45:02.078Z,2.47
2023-02-02T04:50:09.466Z,2.20
2023-02-02T04:55:13.224Z,2.00
2023-02-02T05:00:17.870Z,1.95
2023-02-02T05:05:23.388Z,2.10
2023-02-02T05:10:27.663Z,2.47
2023-02-02T05:15:31.334Z,2.20
2023-02-02T05:20:36.350Z,1.88
2023-02-02T05:25:39.993Z,1.85
2023-02-02T05:30:43.606Z,1.80
2023-02-02T05:35:49.868Z,2.00
2023-02-02T05:40:53.675Z,2.10
2023-02-02T05:45:57.586Z,2.08
2023-02-02T05:51:07.157Z,1.90
2023-02-02T05:56:10.948Z,2.10
2023-02-02T06:01:15.287Z,1.88
2023-02-02T06:06:20.275Z,1.90
2023-02-02T06:11:23.919Z,1.70
2023-02-02T06:16:27.885Z,1.70
2023-02-02T06:21:33.370Z,1.58
2023-02-02T06:26:37.175Z,1.80
2023-02-02T06:31:40.931Z,1.60
2023-02-02T06:36:45.957Z,1.70
2023-02-02T06:41:49.593Z,1.80
2023-02-02T06:46:53.285Z,1.83
2023-02-02T06:51:58.358Z,1.80
2023-02-02T06:57:02.020Z,1.88
2023-02-02T07:02:05.664Z,1.90
2023-02-02T07:07:10.719Z,1.80
2023-02-02T07:12:14.327Z,2.00
2023-02-02T07:17:18.072Z,1.83
2023-02-02T07:22:23.082Z,1.70
2023-02-02T07:27:26.725Z,1.60
2023-02-02T07:32:30.364Z,1.80
2023-02-02T07:37:35.392Z,1.67
2023-02-02T07:42:39.040Z,2.00
2023-02-02T07:47:42.683Z,1.65
2023-02-02T07:52:47.659Z,1.90
2023-02-02T07:57:55.485Z,1.50
2023-02-02T08:02:59.256Z,1.95
2023-02-02T08:08:04.586Z,1.98
2023-02-02T08:13:08.202Z,1.92
2023-02-02T08:18:11.876Z,1.52
2023-02-02T08:23:16.960Z,1.73
2023-02-02T08:28:20.924Z,1.50
2023-02-02T08:33:24.500Z,1.60
2023-02-02T08:38:30.946Z,1.85
2023-02-02T08:43:34.762Z,1.40
2023-02-02T08:48:38.963Z,1.70
2023-02-02T08:53:44.797Z,1.63
2023-02-02T08:58:51.954Z,1.77
2023-02-02T09:03:57.281Z,1.60
2023-02-02T09:09:02.609Z,1.70
2023-02-02T09:14:07.371Z,1.48
2023-02-02T09:19:13.153Z,1.88
2023-02-02T09:24:20.006Z,1.50
2023-02-02T09:29:23.696Z,1.50
2023-02-02T09:34:27.319Z,1.58
2023-02-02T09:39:32.356Z,1.50
2023-02-02T09:45:08.219Z,1.60
2023-02-02T09:50:22.904Z,1.67
2023-02-02T09:55:36.202Z,1.40
2023-02-02T10:00:46.658Z,1.55
2023-02-02T10:05:59.018Z,1.42
2023-02-02T10:11:23.966Z,1.33
2023-02-02T10:16:28.015Z,1.38
2023-02-02T10:21:42.528Z,1.25
2023-02-02T10:26:51.101Z,1.40
2023-02-02T10:32:12.206Z,1.20
2023-02-02T10:37:34.843Z,1.40
2023-02-02T10:43:17.208Z,1.42
2023-02-02T10:48:30.352Z,1.20
2023-02-02T10:53:35.119Z,1.40
2023-02-02T10:58:48.316Z,1.40
2023-02-02T11:04:13.196Z,1.40
2023-02-02T11:09:21.632Z,1.30
2023-02-02T11:14:45.424Z,1.70
2023-02-02T11:19:51.386Z,1.33
2023-02-02T11:24:55.996Z,1.55
2023-02-02T11:30:13.641Z,1.25
2023-02-02T11:35:24.014Z,1.40
2023-02-02T11:40:36.721Z,1.23
2023-02-02T11:45:44.385Z,1.30
2023-02-02T11:50:51.550Z,1.27
2023-02-02T11:55:57.819Z,1.60
2023-02-02T12:01:06.305Z,1.30
2023-02-02T12:06:23.397Z,1.20
2023-02-02T12:11:42.395Z,1.25
2023-02-02T12:17:02.484Z,1.40
2023-02-02T12:22:25.451Z,1.20
2023-02-02T12:27:44.283Z,1.50
2023-02-02T12:33:23.054Z,1.20
2023-02-02T12:38:55.491Z,1.55
2023-02-02T12:44:08.369Z,1.15
2023-02-02T12:50:01.960Z,1.27
2023-02-02T12:55:19.411Z,1.20
2023-02-02T13:01:04.776Z,1.40
2023-02-02T13:06:48.999Z,1.20
2023-02-02T13:11:57.452Z,1.10
2023-02-02T13:17:13.191Z,1.23
2023-02-02T13:22:26.829Z,1.10
2023-02-02T13:27:32.264Z,1.23
2023-02-02T13:32:40.171Z,1.20
2023-02-02T13:37:54.933Z,1.40
2023-02-02T13:43:16.688Z,1.00
2023-02-02T13:48:34.262Z,1.15
2023-02-02T13:54:15.935Z,1.30
2023-02-02T13:59:49.182Z,1.05
2023-02-02T14:04:59.156Z,1.08
2023-02-02T14:10:05.607Z,1.10
2023-02-02T14:15:13.377Z,1.30
2023-02-02T14:20:49.498Z,1.10
2023-02-02T14:26:09.675Z,1.23
2023-02-02T14:31:44.326Z,1.10
2023-02-02T14:37:32.856Z,1.20
2023-02-02T14:43:15.739Z,1.40
2023-02-02T14:48:21.094Z,1.17
2023-02-02T14:53:30.417Z,1.00
2023-02-02T14:58:39.786Z,1.00
2023-02-02T15:03:54.909Z,0.90
2023-02-02T15:09:38.718Z,0.98
2023-02-02T15:14:51.401Z,1.00
2023-02-02T15:20:09.647Z,1.00
2023-02-02T15:25:21.823Z,1.10
2023-02-02T15:30:33.570Z,1.10
2023-02-02T15:35:38.319Z,1.08
2023-02-02T15:40:42.610Z,1.10
2023-02-02T15:45:54.079Z,0.90
2023-02-02T15:51:01.439Z,1.00
2023-02-02T15:56:27.042Z,1.03
2023-02-02T16:01:46.240Z,1.05
2023-02-02T16:06:50.955Z,1.00
2023-02-02T16:11:54.767Z,1.00
2023-02-02T16:17:13.916Z,1.02
2023-02-02T16:22:23.848Z,1.20
2023-02-02T16:27:30.392Z,1.00
2023-02-02T16:32:39.192Z,1.13
2023-02-02T16:37:42.922Z,0.80
2023-02-02T16:42:46.587Z,1.00
2023-02-02T16:47:54.888Z,1.10
2023-02-02T16:53:03.398Z,1.00
2023-02-02T16:58:07.342Z,0.90
2023-02-02T17:03:16.587Z,0.90
2023-02-02T17:08:29.325Z,1.20
2023-02-02T17:13:41.415Z,1.00
2023-02-02T17:18:46.774Z,1.10
2023-02-02T17:23:54.182Z,1.03
2023-02-02T17:29:00.142Z,0.90
2023-02-02T17:34:11.568Z,1.02
2023-02-02T17:39:15.206Z,1.15
2023-02-02T17:44:18.836Z,1.00
2023-02-02T17:49:24.501Z,1.00
2023-02-02T17:54:28.089Z,0.93
2023-02-02T17:59:31.666Z,0.90
2023-02-02T18:04:37.636Z,1.02
2023-02-02T18:09:41.233Z,0.95
2023-02-02T18:14:44.856Z,1.02
2023-02-02T18:19:51.233Z,0.82
2023-02-02T18:24:54.965Z,1.00
2023-02-02T18:29:58.552Z,1.30
2023-02-02T18:35:03.663Z,1.02
2023-02-02T18:40:09.026Z,1.00
2023-02-02T18:45:12.810Z,1.00
2023-02-02T18:50:18.426Z,1.13
2023-02-02T18:55:23.007Z,1.00
2023-02-02T19:00:27.604Z,0.90
2023-02-02T19:05:50.336Z,1.00
2023-02-02T19:11:01.697Z,1.00
2023-02-02T19:16:15.918Z,0.90
2023-02-02T19:21:21.101Z,1.00
2023-02-02T19:26:28.120Z,0.95
2023-02-02T19:31:31.924Z,1.13
2023-02-02T19:36:38.459Z,1.30
2023-02-02T19:41:43.223Z,1.15
2023-02-02T19:46:51.949Z,1.10
2023-02-02T19:51:58.868Z,1.10
2023-02-02T19:57:15.731Z,1.00
2023-02-02T20:02:50.232Z,1.10
2023-02-02T20:08:02.264Z,1.20
2023-02-02T20:13:17.935Z,1.20
2023-02-02T20:18:25.377Z,1.30
2023-02-02T20:23:42.170Z,1.37
2023-02-02T20:28:47.242Z,1.40
2023-02-02T20:33:54.264Z,1.20
2023-02-02T20:39:08.227Z,1.20
2023-02-02T20:44:12.426Z,1.27
2023-02-02T20:49:16.167Z,1.30
2023-02-02T20:54:21.240Z,1.30
2023-02-02T20:59:25.179Z,1.50
2023-02-02T21:04:29.113Z,1.50
2023-02-02T21:09:34.113Z,1.60
2023-02-02T21:14:37.899Z,1.50
2023-02-02T21:19:41.612Z,1.50
2023-02-02T21:24:46.567Z,1.60
2023-02-02T21:29:50.169Z,1.40
2023-02-02T21:34:53.813Z,1.70
2023-02-02T21:40:00.945Z,1.50
2023-02-02T21:45:34.563Z,1.88
2023-02-02T21:50:42.537Z,1.90
2023-02-02T21:55:52.212Z,1.45
2023-02-02T22:01:00.700Z,1.73
2023-02-02T22:06:29.293Z,1.77
2023-02-02T22:11:45.548Z,1.77
2023-02-02T22:16:53.629Z,2.20
2023-02-02T22:27:40.092Z,2.03
2023-02-02T22:32:43.763Z,2.10
2023-02-02T22:37:47.636Z,2.42
2023-02-02T22:42:54.731Z,2.20
2023-02-02T22:47:58.518Z,2.10
2023-02-02T22:53:02.672Z,2.25
2023-02-02T22:58:07.735Z,2.10
2023-02-02T23:03:11.780Z,2.40
2023-02-02T23:08:15.388Z,2.08
2023-02-02T23:13:20.692Z,2.40
2023-02-02T23:18:24.363Z,2.40
2023-02-02T23:23:27.946Z,2.55
2023-02-02T23:28:32.958Z,2.10
2023-02-02T23:33:36.656Z,2.50
2023-02-02T23:38:40.426Z,2.63
2023-02-02T23:43:45.481Z,2.47
2023-02-02T23:48:49.402Z,2.35
2023-02-02T23:53:53.140Z,2.55
2023-02-02T23:58:58.166Z,2.50
